Terminal Aerodrome Forecast
Issued by NWS

Current Version | Previous Version | Text Only | Print | Product List | Glossary On
Versions: 1 2 3 4 5 6 7 8 9 10 11 12 13 14 15 16 17 18 19 20 21
000
FTUS43 KBIS 240539
TAFDIK
TAF
KDIK 240539Z 2406/2506 29003KT 2SM BR OVC003
      TEMPO 2406/2410 4SM BR OVC005
     FM241000 32006KT 5SM BR OVC005
     FM241500 33009KT P6SM OVC015
     FM241900 32011KT P6SM BKN015 OVC020=

USA.gov is the U.S. government's official web portal to all federal, state and local government web resources and services.